sensor_id;sensor_type;location;lat;lon;timestamp;P1;durP1;ratioP1;P2;durP2;ratioP2
10399;SDS011;10031;51.180;17.168;2023-03-14T00:02:00;16.40;;;8.90;;
10399;SDS011;10031;51.180;17.168;2023-03-14T00:04:26;14.63;;;8.47;;
10399;SDS011;10031;51.180;17.168;2023-03-14T00:06:53;18.73;;;9.30;;
10399;SDS011;10031;51.180;17.168;2023-03-14T00:09:19;17.87;;;8.87;;
10399;SDS011;10031;51.180;17.168;2023-03-14T00:11:46;17.20;;;10.00;;
10399;SDS011;10031;51.180;17.168;2023-03-14T00:14:12;17.13;;;8.47;;
10399;SDS011;10031;51.180;17.168;2023-03-14T00:16:40;14.20;;;8.83;;
10399;SDS011;10031;51.180;17.168;2023-03-14T00:19:07;18.63;;;9.33;;
10399;SDS011;10031;51.180;17.168;2023-03-14T00:21:33;17.70;;;9.77;;
10399;SDS011;10031;51.180;17.168;2023-03-14T00:23:59;14.30;;;8.80;;
10399;SDS011;10031;51.180;17.168;2023-03-14T00:26:25;15.40;;;9.73;;
10399;SDS011;10031;51.180;17.168;2023-03-14T00:28:52;16.67;;;9.90;;
10399;SDS011;10031;51.180;17.168;2023-03-14T00:31:18;16.10;;;9.07;;
10399;SDS011;10031;51.180;17.168;2023-03-14T00:33:45;18.80;;;8.60;;
10399;SDS011;10031;51.180;17.168;2023-03-14T00:36:12;21.00;;;9.60;;
10399;SDS011;10031;51.180;17.168;2023-03-14T00:38:40;17.37;;;9.70;;
10399;SDS011;10031;51.180;17.168;2023-03-14T00:41:10;17.10;;;9.30;;
10399;SDS011;10031;51.180;17.168;2023-03-14T00:43:38;17.47;;;10.27;;
10399;SDS011;10031;51.180;17.168;2023-03-14T00:46:04;19.30;;;9.57;;
10399;SDS011;10031;51.180;17.168;2023-03-14T00:48:31;17.13;;;9.50;;
10399;SDS011;10031;51.180;17.168;2023-03-14T00:50:57;17.50;;;9.70;;
10399;SDS011;10031;51.180;17.168;2023-03-14T00:53:24;17.57;;;10.70;;
10399;SDS011;10031;51.180;17.168;2023-03-14T00:55:50;18.33;;;10.00;;
10399;SDS011;10031;51.180;17.168;2023-03-14T00:58:17;18.13;;;9.80;;
10399;SDS011;10031;51.180;17.168;2023-03-14T01:00:44;16.33;;;10.03;;
10399;SDS011;10031;51.180;17.168;2023-03-14T01:03:10;17.80;;;10.10;;
10399;SDS011;10031;51.180;17.168;2023-03-14T01:05:37;20.63;;;11.43;;
10399;SDS011;10031;51.180;17.168;2023-03-14T01:08:03;18.67;;;10.50;;
10399;SDS011;10031;51.180;17.168;2023-03-14T01:10:29;17.27;;;10.70;;
10399;SDS011;10031;51.180;17.168;2023-03-14T01:12:55;21.23;;;10.40;;
10399;SDS011;10031;51.180;17.168;2023-03-14T01:15:21;18.83;;;11.07;;
10399;SDS011;10031;51.180;17.168;2023-03-14T01:17:49;19.40;;;11.10;;
10399;SDS011;10031;51.180;17.168;2023-03-14T01:20:15;22.60;;;10.90;;
10399;SDS011;10031;51.180;17.168;2023-03-14T01:22:48;20.17;;;11.97;;
10399;SDS011;10031;51.180;17.168;2023-03-14T01:25:14;21.83;;;11.57;;
10399;SDS011;10031;51.180;17.168;2023-03-14T01:30:11;19.43;;;11.73;;
10399;SDS011;10031;51.180;17.168;2023-03-14T01:32:38;20.57;;;12.10;;
10399;SDS011;10031;51.180;17.168;2023-03-14T01:35:04;19.20;;;12.63;;
10399;SDS011;10031;51.180;17.168;2023-03-14T01:37:31;22.73;;;12.17;;
10399;SDS011;10031;51.180;17.168;2023-03-14T01:39:59;18.13;;;10.77;;
10399;SDS011;10031;51.180;17.168;2023-03-14T01:42:25;17.90;;;10.83;;
10399;SDS011;10031;51.180;17.168;2023-03-14T01:44:52;16.43;;;10.73;;
10399;SDS011;10031;51.180;17.168;2023-03-14T01:47:24;23.30;;;10.70;;
10399;SDS011;10031;51.180;17.168;2023-03-14T01:50:06;17.13;;;10.30;;
10399;SDS011;10031;51.180;17.168;2023-03-14T01:52:36;17.57;;;10.13;;
10399;SDS011;10031;51.180;17.168;2023-03-14T01:55:19;16.03;;;10.73;;
10399;SDS011;10031;51.180;17.168;2023-03-14T01:57:49;14.50;;;9.97;;
10399;SDS011;10031;51.180;17.168;2023-03-14T02:00:22;18.03;;;10.63;;
10399;SDS011;10031;51.180;17.168;2023-03-14T02:02:50;20.00;;;11.50;;
10399;SDS011;10031;51.180;17.168;2023-03-14T02:05:25;20.23;;;11.27;;
10399;SDS011;10031;51.180;17.168;2023-03-14T02:07:56;17.57;;;11.50;;
10399;SDS011;10031;51.180;17.168;2023-03-14T02:10:28;17.37;;;10.83;;
10399;SDS011;10031;51.180;17.168;2023-03-14T02:12:57;17.63;;;11.03;;
10399;SDS011;10031;51.180;17.168;2023-03-14T02:15:26;16.27;;;10.60;;
10399;SDS011;10031;51.180;17.168;2023-03-14T02:17:53;17.90;;;10.53;;
10399;SDS011;10031;51.180;17.168;2023-03-14T02:22:59;15.93;;;9.10;;
10399;SDS011;10031;51.180;17.168;2023-03-14T02:25:38;13.17;;;8.67;;
10399;SDS011;10031;51.180;17.168;2023-03-14T02:28:08;12.40;;;8.97;;
10399;SDS011;10031;51.180;17.168;2023-03-14T02:30:35;14.10;;;9.00;;
10399;SDS011;10031;51.180;17.168;2023-03-14T02:33:06;15.57;;;9.27;;
10399;SDS011;10031;51.180;17.168;2023-03-14T02:35:49;16.17;;;9.27;;
10399;SDS011;10031;51.180;17.168;2023-03-14T02:38:28;12.13;;;8.93;;
10399;SDS011;10031;51.180;17.168;2023-03-14T02:41:14;15.00;;;9.70;;
10399;SDS011;10031;51.180;17.168;2023-03-14T02:43:40;14.23;;;9.33;;
10399;SDS011;10031;51.180;17.168;2023-03-14T02:46:07;14.37;;;8.90;;
10399;SDS011;10031;51.180;17.168;2023-03-14T02:48:39;14.13;;;8.67;;
10399;SDS011;10031;51.180;17.168;2023-03-14T02:51:09;14.20;;;8.80;;
10399;SDS011;10031;51.180;17.168;2023-03-14T02:53:36;14.23;;;8.37;;
10399;SDS011;10031;51.180;17.168;2023-03-14T02:56:03;14.30;;;8.90;;
10399;SDS011;10031;51.180;17.168;2023-03-14T02:58:29;13.40;;;8.30;;
10399;SDS011;10031;51.180;17.168;2023-03-14T03:00:55;11.73;;;7.80;;
10399;SDS011;10031;51.180;17.168;2023-03-14T03:03:21;11.37;;;7.17;;
10399;SDS011;10031;51.180;17.168;2023-03-14T03:05:51;11.57;;;6.67;;
10399;SDS011;10031;51.180;17.168;2023-03-14T03:08:22;8.80;;;6.60;;
10399;SDS011;10031;51.180;17.168;2023-03-14T03:10:49;14.60;;;7.03;;
10399;SDS011;10031;51.180;17.168;2023-03-14T03:13:15;10.70;;;7.27;;
10399;SDS011;10031;51.180;17.168;2023-03-14T03:15:45;11.53;;;6.60;;
10399;SDS011;10031;51.180;17.168;2023-03-14T03:18:12;7.87;;;5.47;;
10399;SDS011;10031;51.180;17.168;2023-03-14T03:20:38;8.67;;;4.80;;
10399;SDS011;10031;51.180;17.168;2023-03-14T03:23:04;6.60;;;5.13;;
10399;SDS011;10031;51.180;17.168;2023-03-14T03:25:30;8.27;;;4.30;;
10399;SDS011;10031;51.180;17.168;2023-03-14T03:27:56;7.13;;;4.10;;
10399;SDS011;10031;51.180;17.168;2023-03-14T03:30:22;9.37;;;4.20;;
10399;SDS011;10031;51.180;17.168;2023-03-14T03:32:50;6.97;;;4.50;;
10399;SDS011;10031;51.180;17.168;2023-03-14T03:35:16;6.80;;;4.27;;
10399;SDS011;10031;51.180;17.168;2023-03-14T03:37:43;7.07;;;3.83;;
10399;SDS011;10031;51.180;17.168;2023-03-14T03:40:09;5.57;;;3.60;;
10399;SDS011;10031;51.180;17.168;2023-03-14T03:42:35;7.63;;;3.80;;
10399;SDS011;10031;51.180;17.168;2023-03-14T03:45:02;6.53;;;3.67;;
10399;SDS011;10031;51.180;17.168;2023-03-14T03:47:29;7.07;;;3.67;;
10399;SDS011;10031;51.180;17.168;2023-03-14T03:49:56;6.50;;;3.87;;
10399;SDS011;10031;51.180;17.168;2023-03-14T03:52:22;5.43;;;3.50;;
10399;SDS011;10031;51.180;17.168;2023-03-14T03:54:48;5.00;;;3.53;;
10399;SDS011;10031;51.180;17.168;2023-03-14T03:57:14;6.57;;;3.80;;
10399;SDS011;10031;51.180;17.168;2023-03-14T03:59:40;6.23;;;3.80;;
10399;SDS011;10031;51.180;17.168;2023-03-14T04:02:06;6.00;;;3.60;;
10399;SDS011;10031;51.180;17.168;2023-03-14T04:04:32;3.57;;;2.97;;
10399;SDS011;10031;51.180;17.168;2023-03-14T04:07:00;7.40;;;3.63;;
10399;SDS011;10031;51.180;17.168;2023-03-14T04:09:25;6.83;;;4.03;;
10399;SDS011;10031;51.180;17.168;2023-03-14T04:11:51;8.33;;;3.57;;
10399;SDS011;10031;51.180;17.168;2023-03-14T04:14:17;6.27;;;3.67;;
10399;SDS011;10031;51.180;17.168;2023-03-14T04:16:43;6.27;;;3.40;;
10399;SDS011;10031;51.180;17.168;2023-03-14T04:19:09;5.43;;;3.60;;
10399;SDS011;10031;51.180;17.168;2023-03-14T04:21:35;5.53;;;3.70;;
10399;SDS011;10031;51.180;17.168;2023-03-14T04:24:01;6.27;;;4.00;;
10399;SDS011;10031;51.180;17.168;2023-03-14T04:26:27;5.03;;;3.50;;
10399;SDS011;10031;51.180;17.168;2023-03-14T04:28:53;9.17;;;3.70;;
10399;SDS011;10031;51.180;17.168;2023-03-14T04:31:20;6.87;;;4.10;;
10399;SDS011;10031;51.180;17.168;2023-03-14T04:33:46;4.67;;;4.00;;
10399;SDS011;10031;51.180;17.168;2023-03-14T04:36:13;7.37;;;4.20;;
10399;SDS011;10031;51.180;17.168;2023-03-14T04:38:39;8.53;;;3.57;;
10399;SDS011;10031;51.180;17.168;2023-03-14T04:41:05;7.30;;;3.87;;
10399;SDS011;10031;51.180;17.168;2023-03-14T04:43:31;8.07;;;3.70;;
10399;SDS011;10031;51.180;17.168;2023-03-14T04:45:58;6.43;;;3.27;;
10399;SDS011;10031;51.180;17.168;2023-03-14T04:48:24;7.00;;;3.70;;
10399;SDS011;10031;51.180;17.168;2023-03-14T04:50:50;8.63;;;3.80;;
10399;SDS011;10031;51.180;17.168;2023-03-14T04:53:20;6.37;;;3.90;;
10399;SDS011;10031;51.180;17.168;2023-03-14T04:55:49;6.17;;;3.93;;
10399;SDS011;10031;51.180;17.168;2023-03-14T04:58:17;5.37;;;3.77;;
10399;SDS011;10031;51.180;17.168;2023-03-14T05:00:43;7.47;;;3.93;;
10399;SDS011;10031;51.180;17.168;2023-03-14T05:03:09;5.30;;;3.70;;
10399;SDS011;10031;51.180;17.168;2023-03-14T05:05:35;7.17;;;3.67;;
10399;SDS011;10031;51.180;17.168;2023-03-14T05:08:00;8.63;;;4.13;;
10399;SDS011;10031;51.180;17.168;2023-03-14T05:10:26;6.70;;;3.60;;
10399;SDS011;10031;51.180;17.168;2023-03-14T05:12:55;7.37;;;3.83;;
10399;SDS011;10031;51.180;17.168;2023-03-14T05:15:21;8.07;;;3.80;;
10399;SDS011;10031;51.180;17.168;2023-03-14T05:17:47;6.77;;;3.77;;
10399;SDS011;10031;51.180;17.168;2023-03-14T05:20:14;7.53;;;3.97;;
10399;SDS011;10031;51.180;17.168;2023-03-14T05:22:43;7.83;;;4.10;;
10399;SDS011;10031;51.180;17.168;2023-03-14T05:25:09;6.33;;;4.20;;
10399;SDS011;10031;51.180;17.168;2023-03-14T05:27:36;5.93;;;4.10;;
10399;SDS011;10031;51.180;17.168;2023-03-14T05:30:05;8.93;;;4.57;;
10399;SDS011;10031;51.180;17.168;2023-03-14T05:32:31;9.20;;;4.57;;
10399;SDS011;10031;51.180;17.168;2023-03-14T05:34:57;7.93;;;4.50;;
10399;SDS011;10031;51.180;17.168;2023-03-14T05:37:27;8.40;;;4.43;;
10399;SDS011;10031;51.180;17.168;2023-03-14T05:39:53;5.77;;;3.77;;
10399;SDS011;10031;51.180;17.168;2023-03-14T05:42:19;10.47;;;5.23;;
10399;SDS011;10031;51.180;17.168;2023-03-14T05:44:45;8.17;;;4.73;;
10399;SDS011;10031;51.180;17.168;2023-03-14T05:47:11;9.10;;;5.47;;
10399;SDS011;10031;51.180;17.168;2023-03-14T05:49:38;10.17;;;5.37;;
10399;SDS011;10031;51.180;17.168;2023-03-14T05:52:04;6.37;;;4.67;;
10399;SDS011;10031;51.180;17.168;2023-03-14T05:54:29;6.53;;;4.53;;
10399;SDS011;10031;51.180;17.168;2023-03-14T05:56:55;8.77;;;4.57;;
10399;SDS011;10031;51.180;17.168;2023-03-14T05:59:22;8.77;;;5.00;;
10399;SDS011;10031;51.180;17.168;2023-03-14T06:01:48;9.17;;;4.97;;
10399;SDS011;10031;51.180;17.168;2023-03-14T06:04:14;8.80;;;5.50;;
10399;SDS011;10031;51.180;17.168;2023-03-14T06:06:40;8.57;;;5.67;;
10399;SDS011;10031;51.180;17.168;2023-03-14T06:09:06;12.33;;;7.07;;
10399;SDS011;10031;51.180;17.168;2023-03-14T06:11:33;13.47;;;7.50;;
10399;SDS011;10031;51.180;17.168;2023-03-14T06:13:59;11.03;;;6.50;;
10399;SDS011;10031;51.180;17.168;2023-03-14T06:16:27;11.70;;;7.23;;
10399;SDS011;10031;51.180;17.168;2023-03-14T06:18:53;12.00;;;6.93;;
10399;SDS011;10031;51.180;17.168;2023-03-14T06:21:19;11.27;;;7.20;;
10399;SDS011;10031;51.180;17.168;2023-03-14T06:23:46;11.20;;;7.17;;
10399;SDS011;10031;51.180;17.168;2023-03-14T06:26:12;9.67;;;7.33;;
10399;SDS011;10031;51.180;17.168;2023-03-14T06:28:38;11.87;;;6.80;;
10399;SDS011;10031;51.180;17.168;2023-03-14T06:31:04;10.33;;;7.07;;
10399;SDS011;10031;51.180;17.168;2023-03-14T06:33:30;10.53;;;7.00;;
10399;SDS011;10031;51.180;17.168;2023-03-14T06:35:57;11.83;;;7.10;;
10399;SDS011;10031;51.180;17.168;2023-03-14T06:38:22;11.13;;;7.10;;
10399;SDS011;10031;51.180;17.168;2023-03-14T06:40:48;14.43;;;6.27;;
10399;SDS011;10031;51.180;17.168;2023-03-14T06:43:15;11.20;;;6.30;;
10399;SDS011;10031;51.180;17.168;2023-03-14T06:45:41;11.90;;;6.93;;
10399;SDS011;10031;51.180;17.168;2023-03-14T06:48:07;11.13;;;6.70;;
10399;SDS011;10031;51.180;17.168;2023-03-14T06:50:33;10.87;;;5.70;;
10399;SDS011;10031;51.180;17.168;2023-03-14T06:52:59;10.87;;;5.90;;
10399;SDS011;10031;51.180;17.168;2023-03-14T06:55:26;9.07;;;5.73;;
10399;SDS011;10031;51.180;17.168;2023-03-14T06:57:54;10.10;;;6.03;;
10399;SDS011;10031;51.180;17.168;2023-03-14T07:00:20;10.27;;;5.60;;
10399;SDS011;10031;51.180;17.168;2023-03-14T07:02:46;7.73;;;5.20;;
10399;SDS011;10031;51.180;17.168;2023-03-14T07:05:12;9.17;;;4.97;;
10399;SDS011;10031;51.180;17.168;2023-03-14T07:07:38;9.40;;;5.57;;
10399;SDS011;10031;51.180;17.168;2023-03-14T07:10:05;12.00;;;5.43;;
10399;SDS011;10031;51.180;17.168;2023-03-14T07:12:33;9.33;;;5.40;;
10399;SDS011;10031;51.180;17.168;2023-03-14T07:14:59;7.50;;;5.50;;
10399;SDS011;10031;51.180;17.168;2023-03-14T07:17:29;8.03;;;5.40;;
10399;SDS011;10031;51.180;17.168;2023-03-14T07:19:55;7.63;;;5.57;;
10399;SDS011;10031;51.180;17.168;2023-03-14T07:22:21;12.10;;;5.43;;
10399;SDS011;10031;51.180;17.168;2023-03-14T07:24:47;8.63;;;5.60;;
10399;SDS011;10031;51.180;17.168;2023-03-14T07:27:13;8.77;;;5.60;;
10399;SDS011;10031;51.180;17.168;2023-03-14T07:29:39;18.00;;;6.53;;
10399;SDS011;10031;51.180;17.168;2023-03-14T07:32:05;11.27;;;5.87;;
10399;SDS011;10031;51.180;17.168;2023-03-14T07:34:36;13.63;;;5.80;;
10399;SDS011;10031;51.180;17.168;2023-03-14T07:37:03;14.63;;;5.97;;
10399;SDS011;10031;51.180;17.168;2023-03-14T07:39:30;9.03;;;5.40;;
10399;SDS011;10031;51.180;17.168;2023-03-14T07:41:55;8.93;;;5.60;;
10399;SDS011;10031;51.180;17.168;2023-03-14T07:44:21;8.40;;;5.63;;
10399;SDS011;10031;51.180;17.168;2023-03-14T07:46:47;11.13;;;5.70;;
10399;SDS011;10031;51.180;17.168;2023-03-14T07:49:14;11.30;;;6.20;;
10399;SDS011;10031;51.180;17.168;2023-03-14T07:51:40;9.70;;;5.60;;
10399;SDS011;10031;51.180;17.168;2023-03-14T07:54:06;9.20;;;5.30;;
10399;SDS011;10031;51.180;17.168;2023-03-14T07:56:32;7.97;;;5.00;;
10399;SDS011;10031;51.180;17.168;2023-03-14T07:58:58;8.87;;;5.20;;
10399;SDS011;10031;51.180;17.168;2023-03-14T08:01:24;11.80;;;5.63;;
10399;SDS011;10031;51.180;17.168;2023-03-14T08:03:50;10.23;;;5.20;;
10399;SDS011;10031;51.180;17.168;2023-03-14T08:06:16;10.67;;;5.50;;
10399;SDS011;10031;51.180;17.168;2023-03-14T08:08:42;9.70;;;5.93;;
10399;SDS011;10031;51.180;17.168;2023-03-14T08:11:08;8.13;;;5.67;;
10399;SDS011;10031;51.180;17.168;2023-03-14T08:13:35;10.60;;;5.77;;
10399;SDS011;10031;51.180;17.168;2023-03-14T08:16:02;12.67;;;6.07;;
10399;SDS011;10031;51.180;17.168;2023-03-14T08:18:29;11.87;;;5.43;;
10399;SDS011;10031;51.180;17.168;2023-03-14T08:20:55;7.20;;;4.97;;
10399;SDS011;10031;51.180;17.168;2023-03-14T08:23:21;11.57;;;6.00;;
10399;SDS011;10031;51.180;17.168;2023-03-14T08:25:51;9.57;;;5.60;;
10399;SDS011;10031;51.180;17.168;2023-03-14T08:28:17;8.17;;;5.53;;
10399;SDS011;10031;51.180;17.168;2023-03-14T08:30:44;10.83;;;5.30;;
10399;SDS011;10031;51.180;17.168;2023-03-14T08:33:10;10.83;;;5.53;;
10399;SDS011;10031;51.180;17.168;2023-03-14T08:35:37;7.87;;;5.20;;
10399;SDS011;10031;51.180;17.168;2023-03-14T08:38:04;9.73;;;5.20;;
10399;SDS011;10031;51.180;17.168;2023-03-14T08:40:29;12.57;;;6.10;;
10399;SDS011;10031;51.180;17.168;2023-03-14T08:42:57;12.47;;;6.27;;
10399;SDS011;10031;51.180;17.168;2023-03-14T08:45:23;10.27;;;5.97;;
10399;SDS011;10031;51.180;17.168;2023-03-14T08:47:50;10.53;;;6.27;;
10399;SDS011;10031;51.180;17.168;2023-03-14T08:50:17;9.37;;;6.37;;
10399;SDS011;10031;51.180;17.168;2023-03-14T08:52:43;12.80;;;7.00;;
10399;SDS011;10031;51.180;17.168;2023-03-14T08:55:10;16.03;;;6.77;;
10399;SDS011;10031;51.180;17.168;2023-03-14T08:57:37;11.00;;;6.80;;
10399;SDS011;10031;51.180;17.168;2023-03-14T09:00:03;11.60;;;7.20;;
10399;SDS011;10031;51.180;17.168;2023-03-14T09:02:40;15.27;;;7.40;;
10399;SDS011;10031;51.180;17.168;2023-03-14T09:05:08;12.70;;;7.73;;
10399;SDS011;10031;51.180;17.168;2023-03-14T09:07:35;10.50;;;6.57;;
10399;SDS011;10031;51.180;17.168;2023-03-14T09:10:01;17.07;;;7.20;;
10399;SDS011;10031;51.180;17.168;2023-03-14T09:12:27;10.23;;;6.10;;
10399;SDS011;10031;51.180;17.168;2023-03-14T09:14:53;7.97;;;5.77;;
10399;SDS011;10031;51.180;17.168;2023-03-14T09:17:20;10.07;;;6.57;;
10399;SDS011;10031;51.180;17.168;2023-03-14T09:19:47;11.10;;;6.63;;
10399;SDS011;10031;51.180;17.168;2023-03-14T09:22:13;11.23;;;7.10;;
10399;SDS011;10031;51.180;17.168;2023-03-14T09:24:40;11.17;;;7.27;;
10399;SDS011;10031;51.180;17.168;2023-03-14T09:27:06;12.43;;;7.43;;
10399;SDS011;10031;51.180;17.168;2023-03-14T09:29:32;10.67;;;7.40;;
10399;SDS011;10031;51.180;17.168;2023-03-14T09:31:59;13.13;;;7.93;;
10399;SDS011;10031;51.180;17.168;2023-03-14T09:34:25;12.17;;;8.47;;
10399;SDS011;10031;51.180;17.168;2023-03-14T09:36:51;13.80;;;7.63;;
10399;SDS011;10031;51.180;17.168;2023-03-14T09:39:17;14.77;;;7.10;;
10399;SDS011;10031;51.180;17.168;2023-03-14T09:41:45;10.17;;;6.27;;
10399;SDS011;10031;51.180;17.168;2023-03-14T09:46:57;13.77;;;7.10;;
10399;SDS011;10031;51.180;17.168;2023-03-14T09:49:35;10.40;;;6.43;;
10399;SDS011;10031;51.180;17.168;2023-03-14T09:54:51;8.73;;;6.07;;
10399;SDS011;10031;51.180;17.168;2023-03-14T09:57:28;10.90;;;6.60;;
10399;SDS011;10031;51.180;17.168;2023-03-14T09:59:56;9.43;;;6.50;;
10399;SDS011;10031;51.180;17.168;2023-03-14T10:02:32;9.80;;;5.60;;
10399;SDS011;10031;51.180;17.168;2023-03-14T10:05:00;9.87;;;5.70;;
10399;SDS011;10031;51.180;17.168;2023-03-14T10:07:31;10.40;;;6.27;;
10399;SDS011;10031;51.180;17.168;2023-03-14T10:09:58;10.20;;;6.17;;
10399;SDS011;10031;51.180;17.168;2023-03-14T10:12:31;14.93;;;6.90;;
10399;SDS011;10031;51.180;17.168;2023-03-14T10:15:07;12.00;;;6.37;;
10399;SDS011;10031;51.180;17.168;2023-03-14T10:17:43;11.27;;;7.07;;
10399;SDS011;10031;51.180;17.168;2023-03-14T10:23:00;14.70;;;7.60;;
10399;SDS011;10031;51.180;17.168;2023-03-14T10:25:27;12.57;;;6.93;;
10399;SDS011;10031;51.180;17.168;2023-03-14T10:27:55;9.03;;;6.87;;
10399;SDS011;10031;51.180;17.168;2023-03-14T10:33:10;14.57;;;8.67;;
10399;SDS011;10031;51.180;17.168;2023-03-14T10:35:44;17.83;;;9.50;;
10399;SDS011;10031;51.180;17.168;2023-03-14T10:38:16;15.00;;;7.77;;
10399;SDS011;10031;51.180;17.168;2023-03-14T10:40:46;13.13;;;7.23;;
10399;SDS011;10031;51.180;17.168;2023-03-14T10:43:17;11.33;;;7.10;;
10399;SDS011;10031;51.180;17.168;2023-03-14T10:45:56;9.50;;;6.70;;
10399;SDS011;10031;51.180;17.168;2023-03-14T10:51:01;12.73;;;6.53;;
10399;SDS011;10031;51.180;17.168;2023-03-14T10:56:14;10.83;;;6.93;;
10399;SDS011;10031;51.180;17.168;2023-03-14T10:58:43;11.37;;;6.90;;
10399;SDS011;10031;51.180;17.168;2023-03-14T11:01:21;10.37;;;6.37;;
10399;SDS011;10031;51.180;17.168;2023-03-14T11:04:06;10.53;;;6.07;;
10399;SDS011;10031;51.180;17.168;2023-03-14T11:07:03;10.80;;;6.13;;
10399;SDS011;10031;51.180;17.168;2023-03-14T11:14:46;8.90;;;5.10;;
10399;SDS011;10031;51.180;17.168;2023-03-14T11:17:15;9.40;;;5.60;;
10399;SDS011;10031;51.180;17.168;2023-03-14T11:32:45;6.97;;;4.80;;
10399;SDS011;10031;51.180;17.168;2023-03-14T11:35:33;8.50;;;5.20;;
10399;SDS011;10031;51.180;17.168;2023-03-14T11:40:39;10.07;;;6.27;;
10399;SDS011;10031;51.180;17.168;2023-03-14T11:43:17;10.17;;;5.80;;
10399;SDS011;10031;51.180;17.168;2023-03-14T11:45:46;9.07;;;5.37;;
10399;SDS011;10031;51.180;17.168;2023-03-14T11:48:19;10.83;;;5.33;;
10399;SDS011;10031;51.180;17.168;2023-03-14T11:50:46;9.60;;;5.30;;
10399;SDS011;10031;51.180;17.168;2023-03-14T11:53:16;10.60;;;5.50;;
10399;SDS011;10031;51.180;17.168;2023-03-14T11:55:45;9.27;;;5.00;;
10399;SDS011;10031;51.180;17.168;2023-03-14T11:58:23;9.57;;;5.53;;
10399;SDS011;10031;51.180;17.168;2023-03-14T12:00:51;8.17;;;5.17;;
10399;SDS011;10031;51.180;17.168;2023-03-14T12:11:09;12.00;;;6.73;;
10399;SDS011;10031;51.180;17.168;2023-03-14T12:13:36;12.50;;;7.00;;
10399;SDS011;10031;51.180;17.168;2023-03-14T12:16:07;12.48;;;6.95;;
10399;SDS011;10031;51.180;17.168;2023-03-14T12:18:36;10.40;;;5.83;;
10399;SDS011;10031;51.180;17.168;2023-03-14T12:21:04;13.50;;;4.97;;
10399;SDS011;10031;51.180;17.168;2023-03-14T12:23:36;10.00;;;5.70;;
10399;SDS011;10031;51.180;17.168;2023-03-14T12:28:42;11.13;;;5.37;;
10399;SDS011;10031;51.180;17.168;2023-03-14T12:34:24;8.50;;;5.27;;
10399;SDS011;10031;51.180;17.168;2023-03-14T12:41:48;8.63;;;4.60;;
10399;SDS011;10031;51.180;17.168;2023-03-14T12:47:01;6.90;;;4.70;;
10399;SDS011;10031;51.180;17.168;2023-03-14T12:49:41;6.83;;;5.17;;
10399;SDS011;10031;51.180;17.168;2023-03-14T12:52:13;12.23;;;4.93;;
10399;SDS011;10031;51.180;17.168;2023-03-14T12:57:55;8.03;;;4.70;;
10399;SDS011;10031;51.180;17.168;2023-03-14T13:00:35;7.87;;;4.67;;
10399;SDS011;10031;51.180;17.168;2023-03-14T13:03:21;7.73;;;4.87;;
10399;SDS011;10031;51.180;17.168;2023-03-14T13:08:36;9.37;;;5.23;;
10399;SDS011;10031;51.180;17.168;2023-03-14T13:11:04;9.87;;;6.13;;
10399;SDS011;10031;51.180;17.168;2023-03-14T13:13:31;9.73;;;5.10;;
10399;SDS011;10031;51.180;17.168;2023-03-14T13:16:12;11.33;;;5.07;;
10399;SDS011;10031;51.180;17.168;2023-03-14T13:19:02;8.83;;;5.73;;
10399;SDS011;10031;51.180;17.168;2023-03-14T13:21:27;6.43;;;4.87;;
10399;SDS011;10031;51.180;17.168;2023-03-14T13:23:56;8.93;;;4.80;;
10399;SDS011;10031;51.180;17.168;2023-03-14T13:26:23;6.93;;;4.67;;
10399;SDS011;10031;51.180;17.168;2023-03-14T13:28:49;7.73;;;5.10;;
10399;SDS011;10031;51.180;17.168;2023-03-14T13:31:22;8.97;;;5.50;;
10399;SDS011;10031;51.180;17.168;2023-03-14T13:33:59;7.43;;;4.90;;
10399;SDS011;10031;51.180;17.168;2023-03-14T13:36:25;9.80;;;5.23;;
10399;SDS011;10031;51.180;17.168;2023-03-14T13:38:59;9.77;;;5.27;;
10399;SDS011;10031;51.180;17.168;2023-03-14T13:41:32;6.77;;;5.27;;
10399;SDS011;10031;51.180;17.168;2023-03-14T13:44:08;10.13;;;5.33;;
10399;SDS011;10031;51.180;17.168;2023-03-14T13:46:35;8.50;;;4.47;;
10399;SDS011;10031;51.180;17.168;2023-03-14T13:49:03;7.40;;;4.70;;
10399;SDS011;10031;51.180;17.168;2023-03-14T13:51:29;8.07;;;4.97;;
10399;SDS011;10031;51.180;17.168;2023-03-14T13:53:59;8.97;;;5.40;;
10399;SDS011;10031;51.180;17.168;2023-03-14T13:56:28;11.03;;;6.57;;
10399;SDS011;10031;51.180;17.168;2023-03-14T13:58:56;10.67;;;5.67;;
10399;SDS011;10031;51.180;17.168;2023-03-14T14:01:23;9.67;;;6.50;;
10399;SDS011;10031;51.180;17.168;2023-03-14T14:03:54;13.87;;;8.40;;
10399;SDS011;10031;51.180;17.168;2023-03-14T14:08:54;12.80;;;6.97;;
10399;SDS011;10031;51.180;17.168;2023-03-14T14:11:27;7.87;;;6.40;;
10399;SDS011;10031;51.180;17.168;2023-03-14T14:13:54;12.83;;;7.27;;
10399;SDS011;10031;51.180;17.168;2023-03-14T14:16:22;9.70;;;6.30;;
10399;SDS011;10031;51.180;17.168;2023-03-14T14:18:50;14.93;;;6.80;;
10399;SDS011;10031;51.180;17.168;2023-03-14T14:21:17;8.80;;;5.67;;
10399;SDS011;10031;51.180;17.168;2023-03-14T14:23:45;8.33;;;5.77;;
10399;SDS011;10031;51.180;17.168;2023-03-14T14:26:14;9.17;;;5.43;;
10399;SDS011;10031;51.180;17.168;2023-03-14T14:28:42;15.67;;;6.40;;
10399;SDS011;10031;51.180;17.168;2023-03-14T14:31:18;9.33;;;5.40;;
10399;SDS011;10031;51.180;17.168;2023-03-14T14:33:53;7.27;;;5.50;;
10399;SDS011;10031;51.180;17.168;2023-03-14T14:36:22;8.27;;;5.27;;
10399;SDS011;10031;51.180;17.168;2023-03-14T14:38:53;7.27;;;5.23;;
10399;SDS011;10031;51.180;17.168;2023-03-14T14:41:26;8.13;;;5.23;;
10399;SDS011;10031;51.180;17.168;2023-03-14T14:43:55;6.93;;;5.00;;
10399;SDS011;10031;51.180;17.168;2023-03-14T14:46:23;8.27;;;5.10;;
10399;SDS011;10031;51.180;17.168;2023-03-14T14:48:55;7.30;;;4.90;;
10399;SDS011;10031;51.180;17.168;2023-03-14T14:51:25;7.23;;;5.13;;
10399;SDS011;10031;51.180;17.168;2023-03-14T14:54:02;8.20;;;5.30;;
10399;SDS011;10031;51.180;17.168;2023-03-14T14:56:29;9.73;;;6.63;;
10399;SDS011;10031;51.180;17.168;2023-03-14T14:58:59;9.00;;;6.77;;
10399;SDS011;10031;51.180;17.168;2023-03-14T15:01:39;8.07;;;6.07;;
10399;SDS011;10031;51.180;17.168;2023-03-14T15:04:09;8.90;;;6.43;;
10399;SDS011;10031;51.180;17.168;2023-03-14T15:06:37;9.53;;;6.13;;
10399;SDS011;10031;51.180;17.168;2023-03-14T15:09:04;7.90;;;5.50;;
10399;SDS011;10031;51.180;17.168;2023-03-14T15:11:30;10.00;;;5.90;;
10399;SDS011;10031;51.180;17.168;2023-03-14T15:13:57;8.03;;;4.90;;
10399;SDS011;10031;51.180;17.168;2023-03-14T15:16:27;11.00;;;6.30;;
10399;SDS011;10031;51.180;17.168;2023-03-14T15:19:02;12.20;;;5.20;;
10399;SDS011;10031;51.180;17.168;2023-03-14T15:21:30;8.03;;;5.30;;
10399;SDS011;10031;51.180;17.168;2023-03-14T15:23:57;7.87;;;5.73;;
10399;SDS011;10031;51.180;17.168;2023-03-14T15:26:24;7.83;;;5.50;;
10399;SDS011;10031;51.180;17.168;2023-03-14T15:28:51;8.67;;;6.10;;
10399;SDS011;10031;51.180;17.168;2023-03-14T15:31:18;8.43;;;5.47;;
10399;SDS011;10031;51.180;17.168;2023-03-14T15:33:46;12.10;;;6.40;;
10399;SDS011;10031;51.180;17.168;2023-03-14T15:38:41;12.97;;;6.30;;
10399;SDS011;10031;51.180;17.168;2023-03-14T15:41:08;10.80;;;6.57;;
10399;SDS011;10031;51.180;17.168;2023-03-14T15:43:36;9.70;;;6.40;;
10399;SDS011;10031;51.180;17.168;2023-03-14T15:46:02;11.17;;;6.90;;
10399;SDS011;10031;51.180;17.168;2023-03-14T15:48:31;10.13;;;6.47;;